»·PEaware :: SWA663 KBUR-KSAN

SWA663 :: KBUR-KSAN

FLIGHT INFORMATION

Flight Status: Arrived
Operator:
Southwest Airlines
More flights by this operator :: More flights under this callsign
Pilot: Andrew C. (28419)
Aircraft: BOEING 737-700
(B737)
More flights by this aircraft type
Origin: KBUR Bob Hope-Burbank
United States
Destination: KSAN San Diego Intl-Lindbergh
United States
More flights between these airports :: More routes between these airports
Route: VNY3 TWINE V518 KIMMO V459 SLI SLI171 LAX118 CARDI MZB320 MZB
File this flight plan on PilotEdge
Remarks: TEC Route BURP30B
Altitude:
(Current/Filed)
11,000ft
Speed:
(Current/Filed)
465kts
Departed: 09-Oct-20 08:52 PM
Arrived: 09-Oct-20 09:30 PM
Distance/Time
Traveled:
106nm/0:38
Distance/Time
To Go:
Arrived

Flight Plot

Page will automatically refresh every two minutes.


Map Options




Map Legend


Flown Route
Filed Route
Departure Airport
Arrival Airport
Navaid (VOR, NDB)
Fix

Horizontal Profiles

Position Reports

Time Latitude Longitude Heading Altitude Ground
Speed
09-Oct-20 20:24 34.196822 -118.350609 174 785ft 0kts
09-Oct-20 20:25 34.196822 -118.350609 174 785ft 0kts
09-Oct-20 20:26 34.196822 -118.350609 174 785ft 0kts
09-Oct-20 20:27 34.196822 -118.350609 174 785ft 0kts
09-Oct-20 20:28 34.196822 -118.350609 174 785ft 0kts
09-Oct-20 20:29 34.196822 -118.350609 174 785ft 0kts
09-Oct-20 20:30 34.196822 -118.350609 174 785ft 0kts
09-Oct-20 20:31 34.196822 -118.350609 174 785ft 0kts
09-Oct-20 20:32 34.196822 -118.350609 174 785ft 0kts
09-Oct-20 20:33 34.196822 -118.350609 174 785ft 0kts
09-Oct-20 20:34 34.196822 -118.350609 174 785ft 0kts
09-Oct-20 20:35 34.196822 -118.350609 174 785ft 0kts
09-Oct-20 20:36 34.196822 -118.350609 174 785ft 0kts
09-Oct-20 20:37 34.196822 -118.350609 174 785ft 0kts
09-Oct-20 20:38 34.196822 -118.350609 174 785ft 0kts
09-Oct-20 20:39 34.196822 -118.350609 174 785ft 0kts
09-Oct-20 20:40 34.196822 -118.350609 174 785ft 0kts
09-Oct-20 20:41 34.197153 -118.350298 266 785ft 2kts
09-Oct-20 20:42 34.197152 -118.350213 276 785ft 0kts
09-Oct-20 20:43 34.197152 -118.350213 276 785ft 0kts
09-Oct-20 20:44 34.197153 -118.350230 275 784ft 2kts
09-Oct-20 20:45 34.197414 -118.354370 301 785ft 13kts
09-Oct-20 20:46 34.200481 -118.355855 349 785ft 11kts
09-Oct-20 20:47 34.204957 -118.357056 346 785ft 19kts
09-Oct-20 20:48 34.210076 -118.358488 349 785ft 17kts
09-Oct-20 20:49 34.211545 -118.359049 316 785ft 0kts
09-Oct-20 20:50 34.211883 -118.359547 304 785ft 12kts
09-Oct-20 20:51 34.198384 -118.356619 171 1024ft 166kts
09-Oct-20 20:52 34.156449 -118.393281 225 3544ft 248kts
09-Oct-20 20:53 34.103846 -118.454968 225 5577ft 279kts
09-Oct-20 20:54 34.107716 -118.529789 331 9558ft 279kts
09-Oct-20 20:55 34.189076 -118.566168 339 10989ft 345kts
09-Oct-20 20:56 34.281191 -118.589617 18 11013ft 350kts
09-Oct-20 20:57 34.354563 -118.513032 54 10999ft 356kts
09-Oct-20 20:58 34.408104 -118.412555 73 11003ft 357kts
09-Oct-20 20:59 34.359842 -118.325800 178 11017ft 349kts
09-Oct-20 21:00 34.263987 -118.326975 165 11004ft 351kts
09-Oct-20 21:01 34.174139 -118.280089 155 10999ft 352kts
09-Oct-20 21:02 34.085485 -118.228706 155 10999ft 352kts
09-Oct-20 21:03 33.997274 -118.177744 155 10999ft 353kts
09-Oct-20 21:04 33.908643 -118.126680 156 10999ft 353kts
09-Oct-20 21:05 33.821503 -118.076714 157 10999ft 352kts
09-Oct-20 21:06 33.726075 -118.061544 185 11000ft 348kts
09-Oct-20 21:07 33.632305 -118.038806 150 11003ft 354kts
09-Oct-20 21:08 33.560776 -117.957113 134 11004ft 356kts
09-Oct-20 21:09 33.492506 -117.870328 134 11008ft 357kts
09-Oct-20 21:10 33.424234 -117.783803 134 11009ft 358kts
09-Oct-20 21:11 33.355786 -117.697259 134 11009ft 357kts
09-Oct-20 21:12 33.287339 -117.610945 134 11010ft 358kts
09-Oct-20 21:13 33.218466 -117.524297 134 11010ft 358kts
09-Oct-20 21:14 33.149421 -117.438845 140 11007ft 350kts
09-Oct-20 21:15 33.071642 -117.385619 156 10782ft 290kts
09-Oct-20 21:16 33.000898 -117.346431 156 10082ft 289kts
09-Oct-20 21:17 32.929160 -117.306599 155 8771ft 282kts
09-Oct-20 21:18 32.860325 -117.264352 129 7587ft 278kts
09-Oct-20 21:19 32.824978 -117.182365 113 6612ft 276kts
09-Oct-20 21:20 32.793974 -117.102824 113 5996ft 247kts
09-Oct-20 21:21 32.770362 -117.031041 103 5677ft 223kts
09-Oct-20 21:22 32.748678 -116.964498 140 4863ft 210kts
09-Oct-20 21:23 32.701548 -116.967790 240 3966ft 164kts
09-Oct-20 21:24 32.692890 -117.019321 281 3106ft 160kts
09-Oct-20 21:25 32.704473 -117.069926 286 2120ft 157kts
09-Oct-20 21:26 32.714932 -117.113284 285 1306ft 140kts
09-Oct-20 21:27 32.725588 -117.156810 286 524ft 136kts
09-Oct-20 21:28 32.734577 -117.193886 287 23ft 44kts
09-Oct-20 21:30 32.734366 -117.197394 106 24ft 10kts
09-Oct-20 21:31 32.733131 -117.196762 141 24ft 0kts
09-Oct-20 21:32 32.733128 -117.196760 141 24ft 0kts
09-Oct-20 21:33 32.733128 -117.196760 141 24ft 0kts
09-Oct-20 21:34 32.733128 -117.196760 141 24ft 0kts
09-Oct-20 21:35 32.733128 -117.196760 141 24ft 0kts
09-Oct-20 21:36 32.733128 -117.196760 141 24ft 0kts

Navigation Log

Ident Type
Flight plan parsing failed, navigation log unavailable